createdAt,value
2023-07-05T00:01:27.499Z,57.80
2023-07-05T00:03:54.969Z,57.70
2023-07-05T00:06:22.224Z,57.70
2023-07-05T00:08:49.862Z,57.70
2023-07-05T00:11:17.500Z,57.60
2023-07-05T00:13:44.765Z,57.70
2023-07-05T00:16:13.285Z,57.70
2023-07-05T00:18:41.199Z,57.70
2023-07-05T00:21:09.915Z,57.80
2023-07-05T00:23:39.094Z,57.90
2023-07-05T00:26:08.342Z,58.10
2023-07-05T00:28:35.691Z,58.30
2023-07-05T00:31:06.884Z,58.70
2023-07-05T00:33:34.490Z,58.80
2023-07-05T00:36:02.311Z,59.00
2023-07-05T00:38:29.515Z,59.10
2023-07-05T00:40:56.770Z,59.20
2023-07-05T00:43:23.816Z,59.10
2023-07-05T00:45:59.040Z,59.20
2023-07-05T00:48:40.764Z,59.20
2023-07-05T00:51:22.074Z,59.20
2023-07-05T00:53:49.543Z,59.20
2023-07-05T00:56:25.333Z,59.20
2023-07-05T00:58:54.245Z,59.20
2023-07-05T01:01:21.764Z,59.30
2023-07-05T01:03:55.656Z,59.40
2023-07-05T01:06:25.949Z,59.60
2023-07-05T01:08:54.157Z,59.80
2023-07-05T01:12:03.198Z,59.90
2023-07-05T01:14:44.553Z,60.00
2023-07-05T01:17:45.551Z,60.00
2023-07-05T01:20:36.769Z,60.00
2023-07-05T01:23:25.769Z,60.00
2023-07-05T01:25:58.861Z,60.00
2023-07-05T01:28:52.224Z,60.00
2023-07-05T01:31:44.203Z,59.90
2023-07-05T01:34:22.715Z,60.10
2023-07-05T01:36:50.716Z,60.10
2023-07-05T01:39:18.062Z,60.10
2023-07-05T01:41:45.529Z,60.30
2023-07-05T01:44:14.954Z,60.40
2023-07-05T01:46:51.479Z,60.70
2023-07-05T01:49:38.550Z,61.00
2023-07-05T01:52:28.663Z,61.30
2023-07-05T01:54:56.080Z,61.30
2023-07-05T01:57:30.721Z,61.30
2023-07-05T02:00:13.462Z,61.30
2023-07-05T02:02:46.788Z,61.20
2023-07-05T02:05:15.661Z,61.40
2023-07-05T02:07:45.677Z,61.70
2023-07-05T02:10:15.012Z,61.90
2023-07-05T02:12:42.666Z,62.00
2023-07-05T02:15:10.300Z,62.30
2023-07-05T02:17:37.413Z,62.20
2023-07-05T02:20:06.562Z,62.40
2023-07-05T02:22:34.037Z,62.50
2023-07-05T02:25:01.376Z,62.70
2023-07-05T02:27:30.202Z,62.60
2023-07-05T02:29:58.026Z,62.60
2023-07-05T02:32:25.514Z,62.50
2023-07-05T02:34:54.046Z,62.60
2023-07-05T02:37:21.530Z,62.80
2023-07-05T02:39:54.549Z,62.90
2023-07-05T02:42:21.885Z,63.10
2023-07-05T02:44:49.718Z,63.10
2023-07-05T02:47:19.527Z,63.20
2023-07-05T02:49:47.365Z,63.30
2023-07-05T02:52:15.513Z,63.50
2023-07-05T02:54:43.045Z,63.60
2023-07-05T02:57:10.154Z,63.70
2023-07-05T02:59:37.406Z,63.60
2023-07-05T03:02:04.910Z,63.40
2023-07-05T03:04:32.097Z,63.30
2023-07-05T03:06:59.346Z,63.20
2023-07-05T03:09:26.494Z,63.50
2023-07-05T03:11:53.629Z,63.70
2023-07-05T03:14:20.989Z,64.00
2023-07-05T03:16:48.248Z,64.20
2023-07-05T03:19:15.440Z,64.40
2023-07-05T03:21:44.242Z,64.40
2023-07-05T03:24:11.431Z,64.60
2023-07-05T03:26:38.556Z,64.60
2023-07-05T03:29:06.455Z,64.70
2023-07-05T03:31:33.718Z,64.80
2023-07-05T03:34:00.890Z,64.80
2023-07-05T03:36:28.207Z,65.00
2023-07-05T03:38:55.444Z,65.40
2023-07-05T03:41:24.592Z,65.40
2023-07-05T03:43:58.651Z,65.20
2023-07-05T03:46:26.311Z,65.20
2023-07-05T03:48:53.674Z,65.30
2023-07-05T03:51:22.822Z,65.40
2023-07-05T03:53:52.193Z,65.20
2023-07-05T03:56:19.927Z,65.10
2023-07-05T03:58:47.675Z,65.20
2023-07-05T04:01:19.215Z,65.40
2023-07-05T04:03:49.207Z,65.70
2023-07-05T04:06:18.045Z,65.80
2023-07-05T04:08:45.247Z,65.90
2023-07-05T04:11:12.432Z,66.00
2023-07-05T04:13:41.553Z,66.10
2023-07-05T04:16:22.306Z,66.20
2023-07-05T04:18:54.978Z,66.30
2023-07-05T04:21:22.836Z,66.40
2023-07-05T04:23:51.048Z,66.50
2023-07-05T04:26:21.158Z,66.40
2023-07-05T04:28:49.454Z,66.50
2023-07-05T04:31:20.257Z,66.50
2023-07-05T04:33:47.730Z,66.50
2023-07-05T04:36:27.064Z,66.50
2023-07-05T04:38:59.399Z,66.50
2023-07-05T04:41:27.456Z,66.50
2023-07-05T04:43:54.798Z,66.70
2023-07-05T04:46:22.629Z,66.50
2023-07-05T04:48:50.643Z,66.40
2023-07-05T04:51:18.921Z,66.40
2023-07-05T04:53:46.489Z,66.30
2023-07-05T04:56:15.636Z,66.20
2023-07-05T04:58:43.688Z,66.20
2023-07-05T05:01:12.344Z,66.10
2023-07-05T05:03:39.742Z,66.00
2023-07-05T05:06:07.037Z,65.80
2023-07-05T05:08:34.387Z,65.60
2023-07-05T05:11:03.361Z,65.50
2023-07-05T05:13:33.340Z,65.30
2023-07-05T05:16:01.405Z,65.20
2023-07-05T05:18:36.627Z,65.10
2023-07-05T05:21:04.120Z,64.90
2023-07-05T05:23:31.671Z,64.70
2023-07-05T05:25:58.818Z,64.50
2023-07-05T05:28:26.135Z,64.50
2023-07-05T05:30:54.207Z,64.40
2023-07-05T05:33:21.526Z,64.40
2023-07-05T05:35:50.934Z,64.30
2023-07-05T05:38:19.815Z,64.20
2023-07-05T05:40:50.118Z,64.20
2023-07-05T05:43:18.396Z,64.10
2023-07-05T05:45:45.887Z,63.90
2023-07-05T05:48:12.980Z,63.80
2023-07-05T05:50:40.416Z,63.60
2023-07-05T05:53:07.688Z,63.40
2023-07-05T05:55:34.980Z,63.30
2023-07-05T05:58:02.156Z,63.10
2023-07-05T06:00:30.076Z,63.00
2023-07-05T06:02:58.586Z,62.90
2023-07-05T06:05:26.869Z,62.70
2023-07-05T06:07:55.109Z,62.60
2023-07-05T06:10:25.385Z,62.60
2023-07-05T06:12:52.627Z,62.50
2023-07-05T06:15:19.708Z,62.30
2023-07-05T06:17:46.900Z,62.10
2023-07-05T06:20:17.594Z,62.00
2023-07-05T06:22:45.003Z,62.00
2023-07-05T06:25:12.611Z,62.00
2023-07-05T06:27:40.581Z,62.10
2023-07-05T06:30:09.356Z,62.10
2023-07-05T06:32:36.795Z,62.10
2023-07-05T06:35:05.298Z,62.20
2023-07-05T06:37:32.469Z,62.20
2023-07-05T06:39:59.621Z,62.20
2023-07-05T06:42:29.065Z,62.20
2023-07-05T06:44:57.441Z,62.20
2023-07-05T06:47:24.794Z,62.10
2023-07-05T06:49:52.069Z,62.20
2023-07-05T06:52:19.234Z,62.20
2023-07-05T06:54:46.394Z,62.10
2023-07-05T06:57:13.585Z,62.10
2023-07-05T06:59:45.532Z,62.20
2023-07-05T07:02:13.304Z,62.30
2023-07-05T07:04:40.574Z,62.30
2023-07-05T07:07:07.781Z,62.10
2023-07-05T07:09:35.807Z,61.90
2023-07-05T07:12:03.069Z,61.80
2023-07-05T07:14:30.282Z,61.80
2023-07-05T07:16:57.642Z,61.50
2023-07-05T07:19:24.843Z,61.50
2023-07-05T07:21:51.998Z,61.30
2023-07-05T07:24:20.984Z,61.10
2023-07-05T07:26:48.188Z,60.90
2023-07-05T07:29:15.417Z,61.00
2023-07-05T07:31:42.695Z,61.10
2023-07-05T07:34:10.141Z,61.10
2023-07-05T07:36:37.803Z,61.20
2023-07-05T07:39:05.728Z,61.20
2023-07-05T07:41:38.489Z,61.00
2023-07-05T07:44:08.942Z,60.90
2023-07-05T07:46:37.856Z,60.70
2023-07-05T07:49:07.032Z,60.60
2023-07-05T07:51:39.549Z,60.60
2023-07-05T07:54:10.437Z,60.30
2023-07-05T07:56:37.997Z,60.00
2023-07-05T07:59:08.744Z,59.80
2023-07-05T08:01:41.496Z,59.50
2023-07-05T08:04:13.222Z,59.30
2023-07-05T08:06:42.440Z,59.10
2023-07-05T08:09:18.852Z,58.90
2023-07-05T08:11:46.183Z,58.70
2023-07-05T08:14:18.932Z,58.70
2023-07-05T08:16:47.148Z,58.70
2023-07-05T08:19:16.199Z,58.50
2023-07-05T08:21:45.216Z,58.30
2023-07-05T08:24:25.687Z,58.00
2023-07-05T08:27:01.028Z,57.90
2023-07-05T08:29:28.089Z,57.90
2023-07-05T08:31:55.371Z,57.80
2023-07-05T08:34:22.564Z,57.90
2023-07-05T08:36:49.687Z,57.90
2023-07-05T08:39:17.451Z,57.90
2023-07-05T08:41:45.492Z,57.80
2023-07-05T08:44:50.214Z,57.80
2023-07-05T08:47:27.367Z,57.60
2023-07-05T08:50:27.377Z,57.30
2023-07-05T08:53:04.796Z,57.10
2023-07-05T08:56:04.104Z,56.90
2023-07-05T08:58:57.595Z,56.80
2023-07-05T09:01:31.556Z,56.60
2023-07-05T09:04:00.057Z,56.60
2023-07-05T09:06:43.769Z,56.40
2023-07-05T09:09:36.219Z,56.10
2023-07-05T09:12:15.570Z,55.50
2023-07-05T09:15:24.417Z,55.20
2023-07-05T09:17:59.174Z,54.80
2023-07-05T09:20:32.305Z,54.70
2023-07-05T09:23:11.778Z,54.40
2023-07-05T09:25:54.518Z,54.30
2023-07-05T09:28:46.705Z,54.20
2023-07-05T09:31:15.133Z,54.10
2023-07-05T09:33:54.910Z,53.80
2023-07-05T09:36:24.830Z,53.50
2023-07-05T09:38:59.358Z,53.10
2023-07-05T09:41:49.891Z,52.50
2023-07-05T09:44:19.849Z,52.40
2023-07-05T09:46:47.589Z,52.10
2023-07-05T09:49:18.212Z,51.70
2023-07-05T09:51:47.460Z,51.60
2023-07-05T09:54:23.959Z,51.20
2023-07-05T09:57:07.548Z,50.50
2023-07-05T09:59:35.979Z,49.90
2023-07-05T10:02:14.506Z,49.50
2023-07-05T10:04:52.252Z,49.40
2023-07-05T10:07:28.760Z,49.10
2023-07-05T10:10:11.611Z,48.60
2023-07-05T10:12:41.531Z,48.20
2023-07-05T10:15:24.099Z,47.90
2023-07-05T10:17:54.715Z,48.00
2023-07-05T10:20:25.148Z,48.30
2023-07-05T10:23:21.567Z,48.50
2023-07-05T10:25:49.193Z,48.80
2023-07-05T10:28:20.303Z,49.10
2023-07-05T10:30:53.534Z,48.80
2023-07-05T10:33:25.073Z,48.40
2023-07-05T10:35:58.663Z,48.30
2023-07-05T10:38:34.939Z,48.20
2023-07-05T10:41:20.630Z,48.20
2023-07-05T10:44:08.072Z,47.70
2023-07-05T10:46:39.652Z,47.30
2023-07-05T10:49:13.572Z,47.10
2023-07-05T10:51:44.595Z,47.20
2023-07-05T10:54:32.399Z,46.90
2023-07-05T10:57:04.031Z,46.80
2023-07-05T10:59:53.503Z,46.50
2023-07-05T11:02:40.359Z,46.10
2023-07-05T11:05:22.618Z,45.90
2023-07-05T11:07:52.457Z,45.90
2023-07-05T11:10:21.044Z,45.80
2023-07-05T11:12:50.015Z,45.70
2023-07-05T11:15:20.550Z,45.00
2023-07-05T11:17:48.223Z,44.30
2023-07-05T11:20:37.718Z,43.60
2023-07-05T11:23:04.848Z,42.90
2023-07-05T11:25:54.034Z,42.50
2023-07-05T11:28:42.550Z,42.20
2023-07-05T11:31:30.683Z,41.80
2023-07-05T11:34:23.179Z,41.80
2023-07-05T11:36:57.713Z,41.50
2023-07-05T11:39:47.251Z,41.20
2023-07-05T11:42:14.722Z,40.90
2023-07-05T11:45:04.835Z,40.60
2023-07-05T11:47:35.353Z,40.40
2023-07-05T11:50:10.647Z,40.30
2023-07-05T11:53:01.167Z,40.20
2023-07-05T11:55:35.062Z,40.20
2023-07-05T11:58:10.967Z,40.40
2023-07-05T12:00:51.768Z,40.60
2023-07-05T12:03:25.374Z,40.70
2023-07-05T12:06:26.487Z,40.60
2023-07-05T12:08:58.589Z,40.80
2023-07-05T12:11:41.043Z,40.60
2023-07-05T12:14:20.689Z,40.30
2023-07-05T12:16:48.129Z,40.30
2023-07-05T12:19:31.938Z,40.00
2023-07-05T12:22:04.246Z,39.90
2023-07-05T12:24:49.948Z,39.30
2023-07-05T12:27:26.902Z,38.80
2023-07-05T12:29:56.482Z,38.20
2023-07-05T12:32:26.005Z,38.10
2023-07-05T12:35:18.180Z,37.70
2023-07-05T12:37:46.943Z,37.60
2023-07-05T12:40:18.264Z,37.20
2023-07-05T12:42:56.298Z,37.00
2023-07-05T12:45:35.858Z,36.60
2023-07-05T12:48:30.385Z,36.40
2023-07-05T12:51:07.723Z,36.20
2023-07-05T12:53:35.144Z,36.00
2023-07-05T12:56:07.085Z,35.80
2023-07-05T12:58:34.460Z,35.50
2023-07-05T13:01:02.868Z,35.20
2023-07-05T13:03:32.893Z,35.00
2023-07-05T13:06:01.719Z,34.90
2023-07-05T13:08:32.819Z,34.80
2023-07-05T13:11:00.243Z,34.40
2023-07-05T13:13:37.443Z,34.20
2023-07-05T13:16:28.834Z,34.00
2023-07-05T13:19:07.640Z,34.00
2023-07-05T13:21:39.365Z,33.80
2023-07-05T13:24:16.433Z,33.80
2023-07-05T13:26:43.575Z,33.80
2023-07-05T13:29:24.670Z,33.90
2023-07-05T13:31:54.233Z,34.20
2023-07-05T13:34:22.563Z,34.50
2023-07-05T13:36:53.428Z,34.70
2023-07-05T13:39:20.933Z,34.70
2023-07-05T13:41:52.609Z,34.50
2023-07-05T13:44:21.428Z,34.50
2023-07-05T13:46:49.196Z,34.30
2023-07-05T13:49:16.902Z,34.20
2023-07-05T13:51:57.287Z,34.00
2023-07-05T13:54:25.804Z,34.00
2023-07-05T13:56:52.937Z,34.00
2023-07-05T13:59:21.121Z,34.10
2023-07-05T14:01:52.040Z,34.20
2023-07-05T14:04:19.705Z,34.30
2023-07-05T14:06:47.048Z,34.40
2023-07-05T14:09:14.333Z,34.40
2023-07-05T14:11:43.924Z,34.80
2023-07-05T14:14:15.722Z,35.10
2023-07-05T14:16:43.193Z,35.20
2023-07-05T14:19:10.628Z,35.50
2023-07-05T14:21:39.520Z,35.30
2023-07-05T14:24:12.153Z,34.80
2023-07-05T14:26:39.718Z,34.60
2023-07-05T14:29:08.029Z,34.60
2023-07-05T14:31:35.556Z,34.80
2023-07-05T14:34:03.077Z,35.30
2023-07-05T14:36:30.268Z,35.70
2023-07-05T14:38:57.628Z,36.20
2023-07-05T14:41:27.577Z,36.60
2023-07-05T14:43:56.038Z,36.90
2023-07-05T14:46:25.107Z,37.20
2023-07-05T14:48:52.324Z,37.40
2023-07-05T14:51:23.772Z,37.80
2023-07-05T14:53:51.341Z,38.20
2023-07-05T14:56:18.596Z,38.40
2023-07-05T14:58:46.135Z,38.60
2023-07-05T15:01:19.598Z,38.60
2023-07-05T15:03:49.411Z,38.70
2023-07-05T15:06:19.322Z,38.70
2023-07-05T15:08:48.666Z,38.50
2023-07-05T15:11:17.262Z,38.40
2023-07-05T15:13:47.847Z,38.40
2023-07-05T15:16:25.000Z,38.30
2023-07-05T15:18:54.092Z,38.40
2023-07-05T15:21:26.517Z,38.50
2023-07-05T15:23:56.374Z,38.60
2023-07-05T15:26:24.378Z,38.90
2023-07-05T15:28:51.740Z,39.20
2023-07-05T15:31:32.713Z,39.60
2023-07-05T15:34:00.079Z,40.10
2023-07-05T15:36:27.457Z,40.40
2023-07-05T15:38:54.747Z,40.80
2023-07-05T15:41:21.966Z,41.20
2023-07-05T15:43:54.078Z,41.40
2023-07-05T15:46:22.084Z,41.80
2023-07-05T15:48:49.558Z,42.20
2023-07-05T15:51:19.065Z,42.60
2023-07-05T15:53:46.620Z,43.10
2023-07-05T15:56:17.678Z,43.60
2023-07-05T15:58:49.871Z,43.80
2023-07-05T16:01:22.960Z,44.10
2023-07-05T16:03:50.673Z,44.50
2023-07-05T16:06:20.128Z,45.00
2023-07-05T16:08:50.266Z,45.70
2023-07-05T16:11:20.945Z,46.20
2023-07-05T16:13:48.822Z,47.00
2023-07-05T16:16:18.535Z,48.00
2023-07-05T16:18:45.956Z,49.40
2023-07-05T16:21:14.108Z,50.20
2023-07-05T16:23:45.250Z,51.10
2023-07-05T16:26:12.553Z,52.10
2023-07-05T16:28:41.335Z,52.90
2023-07-05T16:31:09.225Z,53.40
2023-07-05T16:33:36.381Z,54.60
2023-07-05T16:36:04.766Z,55.10
2023-07-05T16:38:32.955Z,55.30
2023-07-05T16:41:01.917Z,55.70
2023-07-05T16:43:30.390Z,56.20
2023-07-05T16:46:00.101Z,56.70
2023-07-05T16:48:27.839Z,57.10
2023-07-05T16:50:56.058Z,57.50
2023-07-05T16:53:28.068Z,58.10
2023-07-05T16:55:58.761Z,58.80
2023-07-05T16:58:27.274Z,59.60
2023-07-05T17:01:13.504Z,60.40
2023-07-05T17:04:10.347Z,61.20
2023-07-05T17:06:42.797Z,62.10
2023-07-05T17:09:17.486Z,63.00
2023-07-05T17:11:46.588Z,63.60
2023-07-05T17:14:14.083Z,64.20
2023-07-05T17:16:42.124Z,65.20
2023-07-05T17:19:09.969Z,65.70
2023-07-05T17:21:37.250Z,66.10
2023-07-05T17:24:04.717Z,66.50
2023-07-05T17:26:32.218Z,67.00
2023-07-05T17:28:59.906Z,67.30
2023-07-05T17:31:27.632Z,67.70
2023-07-05T17:33:56.072Z,68.10
2023-07-05T17:36:25.515Z,68.10
2023-07-05T17:38:53.914Z,68.30
2023-07-05T17:41:26.517Z,68.20
2023-07-05T17:43:53.925Z,68.50
2023-07-05T17:46:34.030Z,68.70
2023-07-05T17:49:04.631Z,68.80
2023-07-05T17:51:33.623Z,68.80
2023-07-05T17:54:00.763Z,68.70
2023-07-05T17:56:27.958Z,68.80
2023-07-05T17:58:56.778Z,69.00
2023-07-05T18:01:28.241Z,69.00
2023-07-05T18:03:57.221Z,69.10
2023-07-05T18:06:24.700Z,69.10
2023-07-05T18:08:52.037Z,69.20
2023-07-05T18:11:25.293Z,69.30
2023-07-05T18:13:54.884Z,69.50
2023-07-05T18:16:23.937Z,69.40
2023-07-05T18:18:51.579Z,69.40
2023-07-05T18:21:21.611Z,69.30
2023-07-05T18:23:51.492Z,69.00
2023-07-05T18:26:20.743Z,68.70
2023-07-05T18:28:53.455Z,68.50
2023-07-05T18:31:21.963Z,68.70
2023-07-05T18:33:49.416Z,68.70
2023-07-05T18:36:22.306Z,68.40
2023-07-05T18:38:52.185Z,68.60
2023-07-05T18:41:21.694Z,68.80
2023-07-05T18:43:49.106Z,69.10
2023-07-05T18:46:16.515Z,69.20
2023-07-05T18:48:44.174Z,69.30
2023-07-05T18:51:12.626Z,69.60
2023-07-05T18:53:39.924Z,69.80
2023-07-05T18:56:19.273Z,69.80
2023-07-05T18:58:47.861Z,69.70
2023-07-05T19:01:17.881Z,69.80
2023-07-05T19:03:47.232Z,69.80
2023-07-05T19:06:16.983Z,69.80
2023-07-05T19:08:45.242Z,69.90
2023-07-05T19:11:20.687Z,69.90
2023-07-05T19:13:49.237Z,70.40
2023-07-05T19:16:18.270Z,70.60
2023-07-05T19:18:46.149Z,70.90
2023-07-05T19:21:13.464Z,70.90
2023-07-05T19:23:44.109Z,70.80
2023-07-05T19:26:17.428Z,70.70
2023-07-05T19:28:50.091Z,70.60
2023-07-05T19:31:19.172Z,70.80
2023-07-05T19:33:48.028Z,71.00
2023-07-05T19:36:15.325Z,71.20
2023-07-05T19:38:42.478Z,71.40
2023-07-05T19:41:10.004Z,71.50
2023-07-05T19:43:37.280Z,71.60
2023-07-05T19:46:12.230Z,71.70
2023-07-05T19:48:39.449Z,71.90
2023-07-05T19:51:08.814Z,72.00
2023-07-05T19:53:36.468Z,72.00
2023-07-05T19:56:05.734Z,71.90
2023-07-05T19:58:34.285Z,72.30
2023-07-05T20:01:02.121Z,72.30
2023-07-05T20:03:29.739Z,72.30
2023-07-05T20:05:57.675Z,72.20
2023-07-05T20:08:27.330Z,72.10
2023-07-05T20:10:54.545Z,72.10
2023-07-05T20:13:22.865Z,72.10
2023-07-05T20:15:58.312Z,72.20
2023-07-05T20:18:26.140Z,72.30
2023-07-05T20:20:56.901Z,72.40
2023-07-05T20:23:27.968Z,72.40
2023-07-05T20:25:55.519Z,72.50
2023-07-05T20:28:23.367Z,72.60
2023-07-05T20:30:58.309Z,72.60
2023-07-05T20:33:30.685Z,72.30
2023-07-05T20:36:03.196Z,72.20
2023-07-05T20:38:31.120Z,72.20
2023-07-05T20:40:58.993Z,72.30
2023-07-05T20:43:26.704Z,72.40
2023-07-05T20:46:02.475Z,72.50
2023-07-05T20:48:30.623Z,72.60
2023-07-05T20:51:03.698Z,72.60
2023-07-05T20:53:31.194Z,72.60
2023-07-05T20:56:00.205Z,72.70
2023-07-05T20:58:36.932Z,72.70
2023-07-05T21:01:06.752Z,72.50
2023-07-05T21:03:34.293Z,72.50
2023-07-05T21:06:02.589Z,72.50
2023-07-05T21:08:34.353Z,72.60
2023-07-05T21:11:05.848Z,72.50
2023-07-05T21:13:33.775Z,72.50
2023-07-05T21:16:04.674Z,72.50
2023-07-05T21:18:32.748Z,72.50
2023-07-05T21:21:01.812Z,72.50
2023-07-05T21:23:30.445Z,72.50
2023-07-05T21:26:00.228Z,72.60
2023-07-05T21:28:28.123Z,72.60
2023-07-05T21:30:59.530Z,72.70
2023-07-05T21:33:28.009Z,72.70
2023-07-05T21:35:59.887Z,72.80
2023-07-05T21:38:28.977Z,72.70
2023-07-05T21:41:00.709Z,72.60
2023-07-05T21:43:28.379Z,72.80
2023-07-05T21:45:55.832Z,72.90
2023-07-05T21:48:30.040Z,72.80
2023-07-05T21:50:58.676Z,72.80
2023-07-05T21:53:25.900Z,72.80
2023-07-05T21:55:58.232Z,72.60
2023-07-05T21:58:30.541Z,72.50
2023-07-05T22:00:59.674Z,72.70
2023-07-05T22:03:29.920Z,72.70
2023-07-05T22:05:58.955Z,72.70
2023-07-05T22:08:26.669Z,72.50
2023-07-05T22:10:57.061Z,72.30
2023-07-05T22:13:25.662Z,72.50
2023-07-05T22:15:54.428Z,72.60
2023-07-05T22:18:22.025Z,72.40
2023-07-05T22:20:50.111Z,72.50
2023-07-05T22:23:18.070Z,72.60
2023-07-05T22:25:45.510Z,72.70
2023-07-05T22:28:13.842Z,72.60
2023-07-05T22:30:41.052Z,72.60
2023-07-05T22:33:08.172Z,72.50
2023-07-05T22:35:35.441Z,72.60
2023-07-05T22:38:02.692Z,72.60
2023-07-05T22:40:33.048Z,72.40
2023-07-05T22:43:00.360Z,72.40
2023-07-05T22:45:27.476Z,72.30
2023-07-05T22:47:54.693Z,72.30
2023-07-05T22:50:21.845Z,72.40
2023-07-05T22:52:49.131Z,72.40
2023-07-05T22:55:17.062Z,72.50
2023-07-05T22:57:44.548Z,72.60
2023-07-05T23:00:23.549Z,72.60
2023-07-05T23:02:51.617Z,72.70
2023-07-05T23:05:20.613Z,72.90
2023-07-05T23:07:49.669Z,72.90
2023-07-05T23:10:17.002Z,72.70
2023-07-05T23:12:44.322Z,72.70
2023-07-05T23:15:14.260Z,72.70
2023-07-05T23:17:41.693Z,72.70
2023-07-05T23:20:11.016Z,72.70
2023-07-05T23:22:38.092Z,72.80
2023-07-05T23:25:05.491Z,72.90
2023-07-05T23:27:32.559Z,72.80
2023-07-05T23:30:01.003Z,72.80
2023-07-05T23:32:29.764Z,72.80
2023-07-05T23:34:57.297Z,72.70
2023-07-05T23:37:24.956Z,72.70
2023-07-05T23:39:52.353Z,72.70
2023-07-05T23:42:20.716Z,72.60
2023-07-05T23:44:50.200Z,72.60
2023-07-05T23:47:17.662Z,72.70
2023-07-05T23:49:45.947Z,72.80
2023-07-05T23:52:17.364Z,72.90
2023-07-05T23:54:45.015Z,72.80
2023-07-05T23:57:12.120Z,72.80
2023-07-05T23:59:39.395Z,72.90
